sensor_id;sensor_type;location;lat;lon;timestamp;temperature;humidity
53978;DHT22;39886;47.984;-1.586;2022-10-14T00:00:20;20.10;77.90
53978;DHT22;39886;47.984;-1.586;2022-10-14T00:02:46;20.00;77.90
53978;DHT22;39886;47.984;-1.586;2022-10-14T00:05:11;20.10;77.90
53978;DHT22;39886;47.984;-1.586;2022-10-14T00:07:38;20.10;77.90
53978;DHT22;39886;47.984;-1.586;2022-10-14T00:10:05;20.00;77.90
53978;DHT22;39886;47.984;-1.586;2022-10-14T00:12:32;20.10;78.00
53978;DHT22;39886;47.984;-1.586;2022-10-14T00:14:58;20.10;78.00
53978;DHT22;39886;47.984;-1.586;2022-10-14T00:17:25;20.00;77.90
53978;DHT22;39886;47.984;-1.586;2022-10-14T00:19:50;20.00;77.90
53978;DHT22;39886;47.984;-1.586;2022-10-14T00:22:16;20.00;77.90
53978;DHT22;39886;47.984;-1.586;2022-10-14T00:24:42;20.00;77.90
53978;DHT22;39886;47.984;-1.586;2022-10-14T00:27:08;20.00;77.90
53978;DHT22;39886;47.984;-1.586;2022-10-14T00:29:34;20.00;77.90
53978;DHT22;39886;47.984;-1.586;2022-10-14T00:31:59;20.00;77.90
53978;DHT22;39886;47.984;-1.586;2022-10-14T00:34:25;20.00;78.00
53978;DHT22;39886;47.984;-1.586;2022-10-14T00:36:51;20.00;78.00
53978;DHT22;39886;47.984;-1.586;2022-10-14T00:39:16;20.00;77.90
53978;DHT22;39886;47.984;-1.586;2022-10-14T00:41:42;20.00;78.00
53978;DHT22;39886;47.984;-1.586;2022-10-14T00:46:48;20.00;78.00
53978;DHT22;39886;47.984;-1.586;2022-10-14T00:49:19;20.00;77.90
53978;DHT22;39886;47.984;-1.586;2022-10-14T00:51:53;20.00;78.00
53978;DHT22;39886;47.984;-1.586;2022-10-14T00:54:23;20.00;78.00
53978;DHT22;39886;47.984;-1.586;2022-10-14T00:56:50;20.00;78.00
53978;DHT22;39886;47.984;-1.586;2022-10-14T00:59:17;20.00;78.00
53978;DHT22;39886;47.984;-1.586;2022-10-14T01:01:43;20.00;78.00
53978;DHT22;39886;47.984;-1.586;2022-10-14T01:04:09;20.00;78.00
53978;DHT22;39886;47.984;-1.586;2022-10-14T01:09:40;20.00;78.00
53978;DHT22;39886;47.984;-1.586;2022-10-14T01:22:39;20.00;78.00
53978;DHT22;39886;47.984;-1.586;2022-10-14T01:25:26;19.90;78.00
53978;DHT22;39886;47.984;-1.586;2022-10-14T01:28:08;20.00;78.00
53978;DHT22;39886;47.984;-1.586;2022-10-14T01:30:48;19.90;78.00
53978;DHT22;39886;47.984;-1.586;2022-10-14T01:33:15;19.90;78.00
53978;DHT22;39886;47.984;-1.586;2022-10-14T01:36:13;19.90;78.00
53978;DHT22;39886;47.984;-1.586;2022-10-14T01:39:04;19.90;78.00
53978;DHT22;39886;47.984;-1.586;2022-10-14T01:41:36;19.90;78.00
53978;DHT22;39886;47.984;-1.586;2022-10-14T01:44:08;19.90;78.00
53978;DHT22;39886;47.984;-1.586;2022-10-14T01:46:37;19.90;78.00
53978;DHT22;39886;47.984;-1.586;2022-10-14T01:49:07;19.90;78.00
53978;DHT22;39886;47.984;-1.586;2022-10-14T01:51:40;19.90;78.00
53978;DHT22;39886;47.984;-1.586;2022-10-14T01:54:10;19.90;78.10
53978;DHT22;39886;47.984;-1.586;2022-10-14T01:56:37;19.90;78.00
53978;DHT22;39886;47.984;-1.586;2022-10-14T01:59:04;19.90;78.10
53978;DHT22;39886;47.984;-1.586;2022-10-14T02:01:31;19.90;78.00
53978;DHT22;39886;47.984;-1.586;2022-10-14T02:03:59;19.90;78.00
53978;DHT22;39886;47.984;-1.586;2022-10-14T02:06:30;19.90;78.00
53978;DHT22;39886;47.984;-1.586;2022-10-14T02:11:35;19.90;78.00
53978;DHT22;39886;47.984;-1.586;2022-10-14T02:19:35;19.90;78.10
53978;DHT22;39886;47.984;-1.586;2022-10-14T02:22:28;19.90;78.10
53978;DHT22;39886;47.984;-1.586;2022-10-14T02:25:00;19.90;78.10
53978;DHT22;39886;47.984;-1.586;2022-10-14T02:27:30;19.80;78.00
53978;DHT22;39886;47.984;-1.586;2022-10-14T02:29:58;19.80;78.00
53978;DHT22;39886;47.984;-1.586;2022-10-14T02:32:25;19.80;78.00
53978;DHT22;39886;47.984;-1.586;2022-10-14T02:34:54;19.90;78.20
53978;DHT22;39886;47.984;-1.586;2022-10-14T02:37:22;19.80;78.10
53978;DHT22;39886;47.984;-1.586;2022-10-14T02:40:10;19.80;78.10
53978;DHT22;39886;47.984;-1.586;2022-10-14T02:42:38;19.80;78.10
53978;DHT22;39886;47.984;-1.586;2022-10-14T02:45:05;19.80;78.10
53978;DHT22;39886;47.984;-1.586;2022-10-14T02:47:32;19.90;78.20
53978;DHT22;39886;47.984;-1.586;2022-10-14T02:49:58;19.80;78.10
53978;DHT22;39886;47.984;-1.586;2022-10-14T02:52:23;19.90;78.20
53978;DHT22;39886;47.984;-1.586;2022-10-14T02:54:49;19.80;78.10
53978;DHT22;39886;47.984;-1.586;2022-10-14T02:57:15;19.80;78.10
53978;DHT22;39886;47.984;-1.586;2022-10-14T02:59:41;19.80;78.10
53978;DHT22;39886;47.984;-1.586;2022-10-14T03:02:07;19.80;78.10
53978;DHT22;39886;47.984;-1.586;2022-10-14T03:04:33;19.80;78.10
53978;DHT22;39886;47.984;-1.586;2022-10-14T03:06:59;19.80;78.10
53978;DHT22;39886;47.984;-1.586;2022-10-14T03:09:25;19.80;78.10
53978;DHT22;39886;47.984;-1.586;2022-10-14T03:11:51;19.80;78.10
53978;DHT22;39886;47.984;-1.586;2022-10-14T03:14:17;19.80;78.10
53978;DHT22;39886;47.984;-1.586;2022-10-14T03:16:42;19.80;78.10
53978;DHT22;39886;47.984;-1.586;2022-10-14T03:19:08;19.80;78.00
53978;DHT22;39886;47.984;-1.586;2022-10-14T03:21:34;19.80;78.10
53978;DHT22;39886;47.984;-1.586;2022-10-14T03:24:01;19.80;78.00
53978;DHT22;39886;47.984;-1.586;2022-10-14T03:26:27;19.80;78.10
53978;DHT22;39886;47.984;-1.586;2022-10-14T03:28:53;19.80;78.00
53978;DHT22;39886;47.984;-1.586;2022-10-14T03:31:19;19.80;78.10
53978;DHT22;39886;47.984;-1.586;2022-10-14T03:33:44;19.80;78.10
53978;DHT22;39886;47.984;-1.586;2022-10-14T03:36:10;19.80;78.10
53978;DHT22;39886;47.984;-1.586;2022-10-14T03:38:36;19.80;78.10
53978;DHT22;39886;47.984;-1.586;2022-10-14T03:41:02;19.80;78.10
53978;DHT22;39886;47.984;-1.586;2022-10-14T03:43:28;19.80;78.10
53978;DHT22;39886;47.984;-1.586;2022-10-14T03:45:54;19.80;78.10
53978;DHT22;39886;47.984;-1.586;2022-10-14T03:48:20;19.80;78.10
53978;DHT22;39886;47.984;-1.586;2022-10-14T03:50:46;19.80;78.10
53978;DHT22;39886;47.984;-1.586;2022-10-14T03:53:12;19.80;78.10
53978;DHT22;39886;47.984;-1.586;2022-10-14T03:55:38;19.80;78.10
53978;DHT22;39886;47.984;-1.586;2022-10-14T03:58:05;19.70;78.00
53978;DHT22;39886;47.984;-1.586;2022-10-14T04:00:31;19.80;78.10
53978;DHT22;39886;47.984;-1.586;2022-10-14T04:02:56;19.80;78.10
53978;DHT22;39886;47.984;-1.586;2022-10-14T04:05:22;19.80;78.20
53978;DHT22;39886;47.984;-1.586;2022-10-14T04:07:48;19.70;78.10
53978;DHT22;39886;47.984;-1.586;2022-10-14T04:10:14;19.70;78.10
53978;DHT22;39886;47.984;-1.586;2022-10-14T04:12:39;19.70;78.00
53978;DHT22;39886;47.984;-1.586;2022-10-14T04:15:08;19.80;78.10
53978;DHT22;39886;47.984;-1.586;2022-10-14T04:17:34;19.70;78.10
53978;DHT22;39886;47.984;-1.586;2022-10-14T04:20:00;19.80;78.10
53978;DHT22;39886;47.984;-1.586;2022-10-14T04:22:25;19.70;78.00
53978;DHT22;39886;47.984;-1.586;2022-10-14T04:24:51;19.70;78.10
53978;DHT22;39886;47.984;-1.586;2022-10-14T04:27:17;19.70;78.00
53978;DHT22;39886;47.984;-1.586;2022-10-14T04:29:43;19.70;78.00
53978;DHT22;39886;47.984;-1.586;2022-10-14T04:32:09;19.70;78.10
53978;DHT22;39886;47.984;-1.586;2022-10-14T04:34:34;19.70;78.10
53978;DHT22;39886;47.984;-1.586;2022-10-14T04:37:00;19.70;78.10
53978;DHT22;39886;47.984;-1.586;2022-10-14T04:39:26;19.70;78.10
53978;DHT22;39886;47.984;-1.586;2022-10-14T04:41:52;19.70;78.10
53978;DHT22;39886;47.984;-1.586;2022-10-14T04:44:17;19.70;78.10
53978;DHT22;39886;47.984;-1.586;2022-10-14T04:46:43;19.70;78.10
53978;DHT22;39886;47.984;-1.586;2022-10-14T04:49:09;19.70;78.10
53978;DHT22;39886;47.984;-1.586;2022-10-14T04:51:35;19.70;78.10
53978;DHT22;39886;47.984;-1.586;2022-10-14T04:54:01;19.70;78.10
53978;DHT22;39886;47.984;-1.586;2022-10-14T04:56:26;19.70;78.10
53978;DHT22;39886;47.984;-1.586;2022-10-14T04:58:52;19.70;78.10
53978;DHT22;39886;47.984;-1.586;2022-10-14T05:01:18;19.70;78.70
53978;DHT22;39886;47.984;-1.586;2022-10-14T05:03:43;19.70;78.10
53978;DHT22;39886;47.984;-1.586;2022-10-14T05:06:09;19.70;78.20
53978;DHT22;39886;47.984;-1.586;2022-10-14T05:08:36;19.70;78.20
53978;DHT22;39886;47.984;-1.586;2022-10-14T05:11:01;19.70;78.10
53978;DHT22;39886;47.984;-1.586;2022-10-14T05:13:28;19.70;78.80
53978;DHT22;39886;47.984;-1.586;2022-10-14T05:15:54;19.70;78.10
53978;DHT22;39886;47.984;-1.586;2022-10-14T05:18:20;19.70;78.10
53978;DHT22;39886;47.984;-1.586;2022-10-14T05:20:46;19.70;78.20
53978;DHT22;39886;47.984;-1.586;2022-10-14T05:23:12;19.70;78.10
53978;DHT22;39886;47.984;-1.586;2022-10-14T05:25:38;19.70;78.10
53978;DHT22;39886;47.984;-1.586;2022-10-14T05:28:04;19.70;78.10
53978;DHT22;39886;47.984;-1.586;2022-10-14T05:30:30;19.70;78.10
53978;DHT22;39886;47.984;-1.586;2022-10-14T05:32:55;19.70;78.70
53978;DHT22;39886;47.984;-1.586;2022-10-14T05:35:21;19.70;78.10
53978;DHT22;39886;47.984;-1.586;2022-10-14T05:37:47;19.70;78.10
53978;DHT22;39886;47.984;-1.586;2022-10-14T05:40:13;19.70;78.10
53978;DHT22;39886;47.984;-1.586;2022-10-14T05:42:38;19.70;78.10
53978;DHT22;39886;47.984;-1.586;2022-10-14T05:45:05;19.70;78.10
53978;DHT22;39886;47.984;-1.586;2022-10-14T05:47:31;19.70;78.10
53978;DHT22;39886;47.984;-1.586;2022-10-14T05:49:57;19.70;78.10
53978;DHT22;39886;47.984;-1.586;2022-10-14T05:52:23;19.70;78.10
53978;DHT22;39886;47.984;-1.586;2022-10-14T05:54:49;19.70;78.10
53978;DHT22;39886;47.984;-1.586;2022-10-14T05:57:15;19.70;78.10
53978;DHT22;39886;47.984;-1.586;2022-10-14T05:59:41;19.70;78.10
53978;DHT22;39886;47.984;-1.586;2022-10-14T06:02:08;19.60;78.00
53978;DHT22;39886;47.984;-1.586;2022-10-14T06:04:34;19.70;78.10
53978;DHT22;39886;47.984;-1.586;2022-10-14T06:07:00;19.60;78.10
53978;DHT22;39886;47.984;-1.586;2022-10-14T06:09:25;19.70;78.20
53978;DHT22;39886;47.984;-1.586;2022-10-14T06:11:51;19.60;78.10
53978;DHT22;39886;47.984;-1.586;2022-10-14T06:14:17;19.60;78.10
53978;DHT22;39886;47.984;-1.586;2022-10-14T06:16:43;19.60;78.10
53978;DHT22;39886;47.984;-1.586;2022-10-14T06:19:08;19.70;78.10
53978;DHT22;39886;47.984;-1.586;2022-10-14T06:21:34;19.60;78.10
53978;DHT22;39886;47.984;-1.586;2022-10-14T06:24:00;19.60;78.10
53978;DHT22;39886;47.984;-1.586;2022-10-14T06:26:25;19.60;78.10
53978;DHT22;39886;47.984;-1.586;2022-10-14T06:28:52;19.60;78.10
53978;DHT22;39886;47.984;-1.586;2022-10-14T06:31:17;19.60;78.20
53978;DHT22;39886;47.984;-1.586;2022-10-14T06:33:43;19.60;78.10
53978;DHT22;39886;47.984;-1.586;2022-10-14T06:36:09;19.60;78.10
53978;DHT22;39886;47.984;-1.586;2022-10-14T06:38:36;19.60;78.20
53978;DHT22;39886;47.984;-1.586;2022-10-14T06:41:02;19.60;78.10
53978;DHT22;39886;47.984;-1.586;2022-10-14T06:43:27;19.60;78.20
53978;DHT22;39886;47.984;-1.586;2022-10-14T06:45:56;19.60;78.20
53978;DHT22;39886;47.984;-1.586;2022-10-14T06:48:22;19.60;78.30
53978;DHT22;39886;47.984;-1.586;2022-10-14T06:50:48;19.60;78.30
53978;DHT22;39886;47.984;-1.586;2022-10-14T06:53:14;19.60;78.30
53978;DHT22;39886;47.984;-1.586;2022-10-14T06:55:39;19.60;78.40
53978;DHT22;39886;47.984;-1.586;2022-10-14T06:58:05;19.60;78.40
53978;DHT22;39886;47.984;-1.586;2022-10-14T07:00:31;19.60;78.50
53978;DHT22;39886;47.984;-1.586;2022-10-14T07:02:57;19.70;78.60
53978;DHT22;39886;47.984;-1.586;2022-10-14T07:05:24;19.70;78.60
53978;DHT22;39886;47.984;-1.586;2022-10-14T07:07:50;19.70;78.40
53978;DHT22;39886;47.984;-1.586;2022-10-14T07:10:16;19.90;78.10
53978;DHT22;39886;47.984;-1.586;2022-10-14T07:12:42;20.00;77.70
53978;DHT22;39886;47.984;-1.586;2022-10-14T07:15:08;20.20;77.50
53978;DHT22;39886;47.984;-1.586;2022-10-14T07:17:34;20.30;77.10
53978;DHT22;39886;47.984;-1.586;2022-10-14T07:20:00;20.40;76.80
53978;DHT22;39886;47.984;-1.586;2022-10-14T07:22:25;20.50;76.60
53978;DHT22;39886;47.984;-1.586;2022-10-14T07:24:51;20.60;76.70
53978;DHT22;39886;47.984;-1.586;2022-10-14T07:27:17;20.70;76.40
53978;DHT22;39886;47.984;-1.586;2022-10-14T07:29:44;20.80;76.40
53978;DHT22;39886;47.984;-1.586;2022-10-14T07:32:10;20.80;75.90
53978;DHT22;39886;47.984;-1.586;2022-10-14T07:34:36;20.90;75.70
53978;DHT22;39886;47.984;-1.586;2022-10-14T07:37:02;21.00;75.40
53978;DHT22;39886;47.984;-1.586;2022-10-14T07:39:28;21.10;75.80
53978;DHT22;39886;47.984;-1.586;2022-10-14T07:41:54;21.10;75.90
53978;DHT22;39886;47.984;-1.586;2022-10-14T07:44:20;21.20;75.70
53978;DHT22;39886;47.984;-1.586;2022-10-14T07:46:46;21.20;75.20
53978;DHT22;39886;47.984;-1.586;2022-10-14T07:49:17;21.30;75.20
53978;DHT22;39886;47.984;-1.586;2022-10-14T07:51:44;21.30;75.00
53978;DHT22;39886;47.984;-1.586;2022-10-14T07:54:24;21.40;74.90
53978;DHT22;39886;47.984;-1.586;2022-10-14T07:56:50;21.40;74.80
53978;DHT22;39886;47.984;-1.586;2022-10-14T07:59:17;21.50;74.40
53978;DHT22;39886;47.984;-1.586;2022-10-14T08:01:48;21.50;74.20
53978;DHT22;39886;47.984;-1.586;2022-10-14T08:04:15;21.40;74.70
53978;DHT22;39886;47.984;-1.586;2022-10-14T08:06:41;21.30;74.80
53978;DHT22;39886;47.984;-1.586;2022-10-14T08:09:08;21.30;75.20
53978;DHT22;39886;47.984;-1.586;2022-10-14T08:11:34;21.20;75.30
53978;DHT22;39886;47.984;-1.586;2022-10-14T08:14:00;21.20;75.60
53978;DHT22;39886;47.984;-1.586;2022-10-14T08:16:28;21.10;75.80
53978;DHT22;39886;47.984;-1.586;2022-10-14T08:18:56;21.10;75.80
53978;DHT22;39886;47.984;-1.586;2022-10-14T08:21:23;21.00;76.00
53978;DHT22;39886;47.984;-1.586;2022-10-14T08:23:48;21.00;76.00
53978;DHT22;39886;47.984;-1.586;2022-10-14T08:26:29;21.00;76.00
53978;DHT22;39886;47.984;-1.586;2022-10-14T08:28:55;21.00;75.90
53978;DHT22;39886;47.984;-1.586;2022-10-14T08:31:22;21.00;76.00
53978;DHT22;39886;47.984;-1.586;2022-10-14T08:33:48;21.00;76.10
53978;DHT22;39886;47.984;-1.586;2022-10-14T08:36:14;20.90;76.20
53978;DHT22;39886;47.984;-1.586;2022-10-14T08:38:40;20.90;76.20
53978;DHT22;39886;47.984;-1.586;2022-10-14T08:46:32;20.90;76.20
53978;DHT22;39886;47.984;-1.586;2022-10-14T08:51:37;20.90;76.40
53978;DHT22;39886;47.984;-1.586;2022-10-14T08:54:11;20.90;76.70
53978;DHT22;39886;47.984;-1.586;2022-10-14T08:56:40;20.90;76.20
53978;DHT22;39886;47.984;-1.586;2022-10-14T08:59:13;20.90;76.20
53978;DHT22;39886;47.984;-1.586;2022-10-14T09:02:00;20.90;76.40
53978;DHT22;39886;47.984;-1.586;2022-10-14T09:04:30;20.90;76.40
53978;DHT22;39886;47.984;-1.586;2022-10-14T09:07:00;20.90;76.70
53978;DHT22;39886;47.984;-1.586;2022-10-14T09:09:40;20.80;76.50
53978;DHT22;39886;47.984;-1.586;2022-10-14T09:12:13;20.80;76.50
53978;DHT22;39886;47.984;-1.586;2022-10-14T09:14:45;20.80;76.40
53978;DHT22;39886;47.984;-1.586;2022-10-14T09:17:16;20.90;76.50
53978;DHT22;39886;47.984;-1.586;2022-10-14T09:19:49;20.90;76.70
53978;DHT22;39886;47.984;-1.586;2022-10-14T09:22:16;20.90;76.40
53978;DHT22;39886;47.984;-1.586;2022-10-14T09:24:42;20.90;76.70
53978;DHT22;39886;47.984;-1.586;2022-10-14T09:27:14;20.90;76.50
53978;DHT22;39886;47.984;-1.586;2022-10-14T09:32:24;20.90;76.90
53978;DHT22;39886;47.984;-1.586;2022-10-14T09:34:51;20.90;76.60
53978;DHT22;39886;47.984;-1.586;2022-10-14T09:37:31;20.90;76.60
53978;DHT22;39886;47.984;-1.586;2022-10-14T09:45:17;21.00;76.80
53978;DHT22;39886;47.984;-1.586;2022-10-14T09:48:03;20.90;76.90
53978;DHT22;39886;47.984;-1.586;2022-10-14T09:50:40;20.90;77.10
53978;DHT22;39886;47.984;-1.586;2022-10-14T09:56:06;21.00;77.10
53978;DHT22;39886;47.984;-1.586;2022-10-14T10:01:18;21.00;77.10
53978;DHT22;39886;47.984;-1.586;2022-10-14T10:03:46;21.00;77.10
53978;DHT22;39886;47.984;-1.586;2022-10-14T10:06:15;21.00;77.10
53978;DHT22;39886;47.984;-1.586;2022-10-14T10:11:30;21.00;77.10
53978;DHT22;39886;47.984;-1.586;2022-10-14T10:13:58;21.00;77.20
53978;DHT22;39886;47.984;-1.586;2022-10-14T10:16:28;21.00;77.30
53978;DHT22;39886;47.984;-1.586;2022-10-14T10:19:26;21.00;77.90
53978;DHT22;39886;47.984;-1.586;2022-10-14T10:21:52;21.00;77.20
53978;DHT22;39886;47.984;-1.586;2022-10-14T10:24:21;21.00;77.40
53978;DHT22;39886;47.984;-1.586;2022-10-14T10:26:47;21.10;77.40
53978;DHT22;39886;47.984;-1.586;2022-10-14T10:29:24;21.00;77.60
53978;DHT22;39886;47.984;-1.586;2022-10-14T10:37:31;21.00;78.50
53978;DHT22;39886;47.984;-1.586;2022-10-14T10:40:33;21.00;78.30
53978;DHT22;39886;47.984;-1.586;2022-10-14T10:43:31;21.00;78.20
53978;DHT22;39886;47.984;-1.586;2022-10-14T10:46:11;21.00;78.10
53978;DHT22;39886;47.984;-1.586;2022-10-14T10:48:51;21.00;78.00
53978;DHT22;39886;47.984;-1.586;2022-10-14T10:56:51;21.00;77.90
53978;DHT22;39886;47.984;-1.586;2022-10-14T11:02:13;21.00;77.90
53978;DHT22;39886;47.984;-1.586;2022-10-14T11:07:21;21.00;77.90
53978;DHT22;39886;47.984;-1.586;2022-10-14T11:10:29;21.00;77.80
53978;DHT22;39886;47.984;-1.586;2022-10-14T11:18:56;21.00;77.80
53978;DHT22;39886;47.984;-1.586;2022-10-14T11:24:44;21.00;77.80
53978;DHT22;39886;47.984;-1.586;2022-10-14T11:27:30;20.90;77.80
53978;DHT22;39886;47.984;-1.586;2022-10-14T11:44:30;21.00;77.90
53978;DHT22;39886;47.984;-1.586;2022-10-14T11:47:01;21.00;77.90
53978;DHT22;39886;47.984;-1.586;2022-10-14T11:49:36;21.00;77.90
53978;DHT22;39886;47.984;-1.586;2022-10-14T11:52:16;21.00;77.80
53978;DHT22;39886;47.984;-1.586;2022-10-14T11:54:51;21.00;77.80
53978;DHT22;39886;47.984;-1.586;2022-10-14T12:00:04;21.00;77.90
53978;DHT22;39886;47.984;-1.586;2022-10-14T12:05:29;21.00;78.10
53978;DHT22;39886;47.984;-1.586;2022-10-14T12:08:21;21.00;78.30
53978;DHT22;39886;47.984;-1.586;2022-10-14T12:10:51;21.10;78.40
53978;DHT22;39886;47.984;-1.586;2022-10-14T12:13:24;21.10;78.20
53978;DHT22;39886;47.984;-1.586;2022-10-14T12:15:52;21.10;78.50
53978;DHT22;39886;47.984;-1.586;2022-10-14T12:18:18;21.10;78.70
53978;DHT22;39886;47.984;-1.586;2022-10-14T12:25:59;21.10;78.90
53978;DHT22;39886;47.984;-1.586;2022-10-14T12:28:27;21.10;78.90
53978;DHT22;39886;47.984;-1.586;2022-10-14T12:31:20;21.20;79.00
53978;DHT22;39886;47.984;-1.586;2022-10-14T12:36:42;21.20;78.70
53978;DHT22;39886;47.984;-1.586;2022-10-14T12:41:54;21.20;78.90
53978;DHT22;39886;47.984;-1.586;2022-10-14T12:44:32;21.20;79.00
53978;DHT22;39886;47.984;-1.586;2022-10-14T12:46:59;21.20;79.10
53978;DHT22;39886;47.984;-1.586;2022-10-14T12:49:32;21.20;79.20
53978;DHT22;39886;47.984;-1.586;2022-10-14T12:52:02;21.20;79.20
53978;DHT22;39886;47.984;-1.586;2022-10-14T12:54:30;21.30;79.30
53978;DHT22;39886;47.984;-1.586;2022-10-14T12:57:04;21.30;79.40
53978;DHT22;39886;47.984;-1.586;2022-10-14T12:59:36;21.30;79.40
53978;DHT22;39886;47.984;-1.586;2022-10-14T13:02:17;21.30;79.40
53978;DHT22;39886;47.984;-1.586;2022-10-14T13:04:48;21.30;79.30
53978;DHT22;39886;47.984;-1.586;2022-10-14T13:09:44;21.30;79.30
53978;DHT22;39886;47.984;-1.586;2022-10-14T13:12:37;21.30;79.50
53978;DHT22;39886;47.984;-1.586;2022-10-14T13:17:49;21.30;79.50
53978;DHT22;39886;47.984;-1.586;2022-10-14T13:23:26;21.30;79.70
53978;DHT22;39886;47.984;-1.586;2022-10-14T13:26:40;21.30;79.40
53978;DHT22;39886;47.984;-1.586;2022-10-14T13:32:06;21.30;79.60
53978;DHT22;39886;47.984;-1.586;2022-10-14T13:34:52;21.30;79.70
53978;DHT22;39886;47.984;-1.586;2022-10-14T13:39:53;21.30;79.80
53978;DHT22;39886;47.984;-1.586;2022-10-14T13:42:29;21.30;79.70
53978;DHT22;39886;47.984;-1.586;2022-10-14T13:45:05;21.30;79.60
53978;DHT22;39886;47.984;-1.586;2022-10-14T13:47:33;21.30;79.70
53978;DHT22;39886;47.984;-1.586;2022-10-14T13:50:00;21.40;79.70
53978;DHT22;39886;47.984;-1.586;2022-10-14T13:52:27;21.40;79.80
53978;DHT22;39886;47.984;-1.586;2022-10-14T13:57:36;21.30;79.80
53978;DHT22;39886;47.984;-1.586;2022-10-14T14:00:30;21.40;79.90
53978;DHT22;39886;47.984;-1.586;2022-10-14T14:02:56;21.30;79.90
53978;DHT22;39886;47.984;-1.586;2022-10-14T14:05:23;21.30;80.20
53978;DHT22;39886;47.984;-1.586;2022-10-14T14:07:49;21.30;80.10
53978;DHT22;39886;47.984;-1.586;2022-10-14T14:10:22;21.40;80.20
53978;DHT22;39886;47.984;-1.586;2022-10-14T14:12:48;21.40;80.20
53978;DHT22;39886;47.984;-1.586;2022-10-14T14:15:24;21.40;80.30
53978;DHT22;39886;47.984;-1.586;2022-10-14T14:17:51;21.30;80.20
53978;DHT22;39886;47.984;-1.586;2022-10-14T14:20:22;21.30;80.20
53978;DHT22;39886;47.984;-1.586;2022-10-14T14:22:49;21.30;80.20
53978;DHT22;39886;47.984;-1.586;2022-10-14T14:25:25;21.40;80.30
53978;DHT22;39886;47.984;-1.586;2022-10-14T14:27:58;21.30;80.20
53978;DHT22;39886;47.984;-1.586;2022-10-14T14:30:35;21.40;80.30
53978;DHT22;39886;47.984;-1.586;2022-10-14T14:33:14;21.40;80.30
53978;DHT22;39886;47.984;-1.586;2022-10-14T14:35:50;21.40;80.30
53978;DHT22;39886;47.984;-1.586;2022-10-14T14:38:28;21.40;80.40
53978;DHT22;39886;47.984;-1.586;2022-10-14T14:41:05;21.30;80.60
53978;DHT22;39886;47.984;-1.586;2022-10-14T14:43:32;21.40;80.50
53978;DHT22;39886;47.984;-1.586;2022-10-14T14:46:00;21.40;80.50
53978;DHT22;39886;47.984;-1.586;2022-10-14T14:48:28;21.40;80.60
53978;DHT22;39886;47.984;-1.586;2022-10-14T14:50:54;21.40;80.60
53978;DHT22;39886;47.984;-1.586;2022-10-14T14:53:22;21.40;80.50
53978;DHT22;39886;47.984;-1.586;2022-10-14T14:56:10;21.40;80.60
53978;DHT22;39886;47.984;-1.586;2022-10-14T14:58:48;21.30;80.60
53978;DHT22;39886;47.984;-1.586;2022-10-14T15:01:22;21.40;80.60
53978;DHT22;39886;47.984;-1.586;2022-10-14T15:06:19;21.30;80.40
53978;DHT22;39886;47.984;-1.586;2022-10-14T15:08:51;21.30;80.50
53978;DHT22;39886;47.984;-1.586;2022-10-14T15:11:18;21.30;80.50
53978;DHT22;39886;47.984;-1.586;2022-10-14T15:13:56;21.30;80.80
53978;DHT22;39886;47.984;-1.586;2022-10-14T15:16:41;21.30;80.80
53978;DHT22;39886;47.984;-1.586;2022-10-14T15:19:26;21.30;80.80
53978;DHT22;39886;47.984;-1.586;2022-10-14T15:32:45;21.20;80.80
53978;DHT22;39886;47.984;-1.586;2022-10-14T15:35:16;21.20;80.90
53978;DHT22;39886;47.984;-1.586;2022-10-14T15:37:42;21.20;80.80
53978;DHT22;39886;47.984;-1.586;2022-10-14T15:40:15;21.20;80.90
53978;DHT22;39886;47.984;-1.586;2022-10-14T15:42:42;21.20;80.90
53978;DHT22;39886;47.984;-1.586;2022-10-14T15:45:08;21.20;81.00
53978;DHT22;39886;47.984;-1.586;2022-10-14T15:47:34;21.20;81.00
53978;DHT22;39886;47.984;-1.586;2022-10-14T15:50:15;21.10;81.00
53978;DHT22;39886;47.984;-1.586;2022-10-14T15:52:41;21.20;81.10
53978;DHT22;39886;47.984;-1.586;2022-10-14T15:55:16;21.10;81.00
53978;DHT22;39886;47.984;-1.586;2022-10-14T15:57:44;21.10;80.90
53978;DHT22;39886;47.984;-1.586;2022-10-14T16:00:10;21.10;80.90
53978;DHT22;39886;47.984;-1.586;2022-10-14T16:02:36;21.10;80.90
53978;DHT22;39886;47.984;-1.586;2022-10-14T16:05:02;21.10;80.90
53978;DHT22;39886;47.984;-1.586;2022-10-14T16:07:28;21.10;80.90
53978;DHT22;39886;47.984;-1.586;2022-10-14T16:09:54;21.10;80.90
53978;DHT22;39886;47.984;-1.586;2022-10-14T16:12:19;21.10;80.90
53978;DHT22;39886;47.984;-1.586;2022-10-14T16:14:45;21.10;80.90
53978;DHT22;39886;47.984;-1.586;2022-10-14T16:17:11;21.10;80.90
53978;DHT22;39886;47.984;-1.586;2022-10-14T16:19:37;21.00;80.80
53978;DHT22;39886;47.984;-1.586;2022-10-14T16:22:02;21.00;80.80
53978;DHT22;39886;47.984;-1.586;2022-10-14T16:24:28;21.00;80.80
53978;DHT22;39886;47.984;-1.586;2022-10-14T16:26:54;21.00;80.80
53978;DHT22;39886;47.984;-1.586;2022-10-14T16:29:20;21.00;80.80
53978;DHT22;39886;47.984;-1.586;2022-10-14T16:31:46;21.00;80.80
53978;DHT22;39886;47.984;-1.586;2022-10-14T16:34:17;21.00;80.80
53978;DHT22;39886;47.984;-1.586;2022-10-14T16:36:44;21.00;80.80
53978;DHT22;39886;47.984;-1.586;2022-10-14T16:39:11;21.00;80.80
53978;DHT22;39886;47.984;-1.586;2022-10-14T16:41:37;21.00;80.80
53978;DHT22;39886;47.984;-1.586;2022-10-14T16:44:04;21.00;80.90
53978;DHT22;39886;47.984;-1.586;2022-10-14T16:46:30;20.90;80.80
53978;DHT22;39886;47.984;-1.586;2022-10-14T16:49:15;20.90;80.80
53978;DHT22;39886;47.984;-1.586;2022-10-14T16:51:41;20.90;80.80
53978;DHT22;39886;47.984;-1.586;2022-10-14T16:54:08;20.90;80.90
53978;DHT22;39886;47.984;-1.586;2022-10-14T16:56:34;20.90;80.90
53978;DHT22;39886;47.984;-1.586;2022-10-14T16:59:19;20.90;80.90
53978;DHT22;39886;47.984;-1.586;2022-10-14T17:01:46;20.90;80.90
53978;DHT22;39886;47.984;-1.586;2022-10-14T17:04:13;20.90;80.90
53978;DHT22;39886;47.984;-1.586;2022-10-14T17:06:39;20.90;80.90
53978;DHT22;39886;47.984;-1.586;2022-10-14T17:09:05;20.80;80.80
53978;DHT22;39886;47.984;-1.586;2022-10-14T17:11:32;20.80;80.90
53978;DHT22;39886;47.984;-1.586;2022-10-14T17:13:59;20.80;80.80
53978;DHT22;39886;47.984;-1.586;2022-10-14T17:16:26;20.80;80.90
53978;DHT22;39886;47.984;-1.586;2022-10-14T17:18:54;20.80;80.80
53978;DHT22;39886;47.984;-1.586;2022-10-14T17:21:20;20.80;80.90
53978;DHT22;39886;47.984;-1.586;2022-10-14T17:23:46;20.80;80.90
53978;DHT22;39886;47.984;-1.586;2022-10-14T17:26:15;20.80;81.00
53978;DHT22;39886;47.984;-1.586;2022-10-14T17:28:45;20.80;81.00
53978;DHT22;39886;47.984;-1.586;2022-10-14T17:31:19;20.70;80.90
53978;DHT22;39886;47.984;-1.586;2022-10-14T17:33:46;20.80;81.00
53978;DHT22;39886;47.984;-1.586;2022-10-14T17:36:32;20.70;81.00
53978;DHT22;39886;47.984;-1.586;2022-10-14T17:38:58;20.70;81.00
53978;DHT22;39886;47.984;-1.586;2022-10-14T17:41:26;20.70;81.10
53978;DHT22;39886;47.984;-1.586;2022-10-14T17:43:55;20.70;81.00